Time;durP1;ratioP1;P1;durP2;ratioP2;P2;SDS_P1;SDS_P2;PMS_P1;PMS_P2;Temp;Humidity;BMP_temperature;BMP_pressure;BME280_temperature;BME280_humidity;BME280_pressure;Samples;Min_cycle;Max_cycle;Signal;HPM_P1;HPM_P2
2023/03/14 00:01:38;;;;;;;1.20;0.60;;;;;;;11.65;100.00;96578.50;4108162;28;20641;-83
2023/03/14 00:03:43;;;;;;;0.90;0.50;;;;;;;11.68;100.00;96573.84;4118805;28;20706;-83
2023/03/14 00:05:46;;;;;;;1.20;0.60;;;;;;;11.72;100.00;96574.34;4113031;28;20635;-83
2023/03/14 00:07:49;;;;;;;1.07;0.70;;;;;;;11.77;100.00;96570.28;4124444;28;21621;-83
2023/03/14 00:09:52;;;;;;;1.20;0.60;;;;;;;11.83;100.00;96567.94;4127730;28;20736;-83
2023/03/14 00:11:55;;;;;;;1.00;0.47;;;;;;;11.81;100.00;96551.56;4123885;28;20731;-86
2023/03/14 00:13:59;;;;;;;1.33;0.50;;;;;;;11.84;100.00;96534.78;4121072;28;20695;-84
2023/03/14 00:16:04;;;;;;;1.10;0.60;;;;;;;11.85;100.00;96565.97;4124604;28;20630;-83
2023/03/14 00:18:07;;;;;;;2.20;0.80;;;;;;;11.87;100.00;96550.97;4123860;28;20635;-84
2023/03/14 00:20:13;;;;;;;1.00;0.60;;;;;;;11.79;99.10;96542.25;4120882;28;20654;-84
2023/03/14 00:22:16;;;;;;;1.30;0.60;;;;;;;11.81;100.00;96553.38;4107218;28;20632;-84
2023/03/14 00:24:19;;;;;;;1.73;0.70;;;;;;;11.81;100.00;96562.00;4135497;28;20970;-84
2023/03/14 00:26:22;;;;;;;2.03;0.70;;;;;;;11.84;100.00;96538.19;4121680;28;21026;-84
2023/03/14 00:28:25;;;;;;;1.10;0.70;;;;;;;11.85;100.00;96529.41;4120140;28;21231;-84
2023/03/14 00:30:28;;;;;;;1.10;0.60;;;;;;;11.87;100.00;96526.66;4105885;28;20640;-84
2023/03/14 00:32:31;;;;;;;1.60;1.00;;;;;;;11.83;99.98;96541.81;4123822;28;20651;-84
2023/03/14 00:34:35;;;;;;;2.00;0.80;;;;;;;11.84;100.00;96532.97;4121190;28;20743;-84
2023/03/14 00:36:39;;;;;;;1.43;0.60;;;;;;;11.85;100.00;96515.53;4106799;28;20636;-84
2023/03/14 00:38:44;;;;;;;1.20;0.73;;;;;;;11.83;100.00;96501.78;4120040;28;20640;-84
2023/03/14 00:40:47;;;;;;;2.10;0.70;;;;;;;11.78;99.84;96504.03;4118825;28;21232;-84
2023/03/14 00:42:50;;;;;;;1.40;0.70;;;;;;;11.84;100.00;96501.63;4126623;28;20639;-84
2023/03/14 00:44:55;;;;;;;1.90;0.70;;;;;;;11.88;100.00;96521.28;4137427;28;20676;-84
2023/03/14 00:46:58;;;;;;;1.80;0.70;;;;;;;11.89;100.00;96533.38;4111757;28;21052;-84
2023/03/14 00:49:01;;;;;;;1.43;0.70;;;;;;;11.97;100.00;96537.84;4108004;28;20723;-85
2023/03/14 00:51:05;;;;;;;1.30;0.70;;;;;;;11.93;100.00;96526.84;4121360;28;21293;-84
2023/03/14 00:53:10;;;;;;;1.10;0.60;;;;;;;12.00;100.00;96527.91;4111932;28;21099;-84
2023/03/14 00:55:13;;;;;;;1.30;0.70;;;;;;;12.02;100.00;96525.94;4134972;28;20755;-84
2023/03/14 00:57:16;;;;;;;1.67;0.60;;;;;;;12.00;100.00;96524.47;4123545;28;20648;-84
2023/03/14 00:59:19;;;;;;;1.87;0.77;;;;;;;12.03;100.00;96517.16;4123295;28;20700;-84
2023/03/14 01:01:23;;;;;;;3.07;0.70;;;;;;;12.02;100.00;96519.91;4123839;28;20709;-84
2023/03/14 01:03:26;;;;;;;1.20;0.50;;;;;;;11.97;99.98;96522.16;4123772;28;20651;-84
2023/03/14 01:05:29;;;;;;;1.10;0.50;;;;;;;11.99;99.36;96526.25;4119801;28;21206;-84
2023/03/14 01:07:33;;;;;;;2.10;0.63;;;;;;;11.98;99.25;96540.31;4119580;28;20656;-84
2023/03/14 01:09:37;;;;;;;2.10;0.60;;;;;;;12.02;98.81;96541.63;4120193;28;20640;-84
2023/03/14 01:11:40;;;;;;;1.37;0.70;;;;;;;12.00;98.98;96538.34;4138322;28;20690;-84
2023/03/14 01:13:43;;;;;;;1.30;0.63;;;;;;;11.97;99.71;96536.03;4135825;28;20779;-84
2023/03/14 01:15:46;;;;;;;3.03;0.53;;;;;;;11.99;99.54;96533.28;4120055;28;20643;-83
2023/03/14 01:17:50;;;;;;;2.30;0.70;;;;;;;11.99;97.85;96531.47;4115985;28;20725;-84
2023/03/14 01:19:53;;;;;;;1.30;0.80;;;;;;;12.01;98.03;96519.09;4121462;28;21297;-84
2023/03/14 01:21:56;;;;;;;1.23;0.80;;;;;;;12.04;96.98;96517.97;4121016;28;20635;-84
2023/03/14 01:24:00;;;;;;;1.10;0.60;;;;;;;12.08;98.72;96521.91;4120961;28;20637;-84
2023/03/14 01:26:05;;;;;;;1.20;0.70;;;;;;;12.05;96.38;96520.41;4126446;28;20733;-83
2023/03/14 01:28:10;;;;;;;1.07;0.60;;;;;;;12.06;98.96;96526.50;4132280;28;20761;-84
2023/03/14 01:30:13;;;;;;;0.90;0.50;;;;;;;11.99;96.79;96526.25;4119364;28;20692;-84
2023/03/14 01:32:17;;;;;;;1.10;0.50;;;;;;;12.03;99.52;96514.53;4108770;28;20671;-84
2023/03/14 01:34:20;;;;;;;1.20;0.50;;;;;;;11.98;97.09;96511.56;4125992;28;20646;-84
2023/03/14 01:36:24;;;;;;;1.00;0.60;;;;;;;11.97;97.23;96502.06;4118844;28;20679;-84
2023/03/14 01:38:27;;;;;;;0.90;0.50;;;;;;;12.02;99.58;96497.19;4134479;28;21047;-84
2023/03/14 01:40:31;;;;;;;0.93;0.50;;;;;;;12.00;96.67;96485.28;4121965;28;21247;-84
2023/03/14 01:42:35;;;;;;;0.90;0.50;;;;;;;11.96;97.18;96476.91;4102424;28;21288;-84
2023/03/14 01:44:49;;;;;;;1.00;0.57;;;;;;;11.93;98.16;96464.16;4107285;28;20647;-84
2023/03/14 01:46:52;;;;;;;2.13;0.57;;;;;;;11.90;95.93;96453.19;4139116;28;21376;-84
2023/03/14 01:49:02;;;;;;;1.17;0.60;;;;;;;11.95;97.64;96449.16;4122912;28;20695;-84
2023/03/14 01:51:10;;;;;;;3.90;0.67;;;;;;;11.95;97.67;96433.50;4114833;28;20644;-84
2023/03/14 01:53:14;;;;;;;0.90;0.50;;;;;;;11.90;95.86;96425.28;4120420;28;20635;-84
2023/03/14 01:55:18;;;;;;;1.57;0.57;;;;;;;11.82;96.54;96425.22;4123149;28;20627;-84
2023/03/14 01:57:24;;;;;;;1.20;0.57;;;;;;;11.76;96.21;96404.94;4123859;28;20652;-83
2023/03/14 01:59:30;;;;;;;1.30;0.50;;;;;;;11.74;97.61;96385.16;4108927;28;20635;-84
2023/03/14 02:01:33;;;;;;;1.00;0.57;;;;;;;11.71;95.87;96392.50;4106754;28;20668;-84
2023/03/14 02:03:42;;;;;;;2.13;0.70;;;;;;;11.72;97.49;96394.16;4124909;28;20695;-83
2023/03/14 02:05:46;;;;;;;0.90;0.50;;;;;;;11.72;95.70;96409.81;4121607;28;20641;-84
2023/03/14 02:07:56;;;;;;;1.10;0.60;;;;;;;11.72;96.65;96417.66;4112067;28;20659;-84
2023/03/14 02:10:05;;;;;;;1.23;0.60;;;;;;;11.69;96.69;96413.53;4103871;28;21073;-84
2023/03/14 02:12:09;;;;;;;1.23;0.50;;;;;;;11.69;97.68;96413.53;4121530;28;20636;-84
2023/03/14 02:14:36;;;;;;;2.20;0.63;;;;;;;11.62;96.97;96417.75;4119285;28;20643;-83
2023/03/14 02:17:07;;;;;;;1.30;0.70;;;;;;;11.63;96.18;96415.94;4139234;28;21221;-84
2023/03/14 02:19:59;;;;;;;1.60;0.60;;;;;;;11.59;96.67;96419.81;4125673;28;20632;-84
2023/03/14 02:22:11;;;;;;;1.30;0.60;;;;;;;11.55;96.08;96413.28;4123991;28;20635;-84
2023/03/14 02:24:28;;;;;;;1.07;0.50;;;;;;;11.56;97.29;96420.97;4139067;28;20677;-85
2023/03/14 02:26:40;;;;;;;1.43;0.50;;;;;;;11.52;98.86;96411.78;4118257;28;20720;-85
2023/03/14 02:28:44;;;;;;;1.30;0.67;;;;;;;11.49;97.91;96399.03;4123473;28;21290;-85
2023/03/14 02:30:47;;;;;;;1.53;0.73;;;;;;;11.49;97.32;96406.88;4107107;28;20656;-86
2023/03/14 02:32:53;;;;;;;1.23;0.60;;;;;;;11.49;97.09;96406.06;4109829;28;20690;-86
2023/03/14 02:34:58;;;;;;;0.90;0.60;;;;;;;11.41;96.71;96404.16;4142662;28;20637;-84
2023/03/14 02:37:02;;;;;;;1.40;0.50;;;;;;;11.43;96.51;96401.41;4126219;28;20628;-86
2023/03/14 02:39:09;;;;;;;1.73;0.80;;;;;;;11.40;96.40;96386.03;4121166;28;20985;-84
2023/03/14 02:41:16;;;;;;;1.03;0.60;;;;;;;11.41;95.88;96392.88;4138185;28;21198;-84
2023/03/14 02:43:25;;;;;;;1.70;0.60;;;;;;;11.41;95.56;96382.44;4137620;28;20638;-83
2023/03/14 02:45:41;;;;;;;1.50;0.80;;;;;;;11.43;95.61;96380.53;4115926;28;20694;-84
2023/03/14 02:47:48;;;;;;;1.07;0.63;;;;;;;11.47;94.76;96385.31;4127311;28;21216;-83
2023/03/14 02:49:53;;;;;;;1.17;0.50;;;;;;;11.48;96.75;96375.69;4142524;28;21211;-83
2023/03/14 02:51:56;;;;;;;1.20;0.63;;;;;;;11.47;95.23;96384.47;4113813;28;20645;-84
2023/03/14 02:53:59;;;;;;;1.87;0.70;;;;;;;11.47;96.01;96372.28;4145425;28;21412;-83
2023/03/14 02:56:03;;;;;;;1.63;0.73;;;;;;;11.48;95.55;96373.88;4128438;28;20623;-83
2023/03/14 02:58:08;;;;;;;1.17;0.50;;;;;;;11.43;96.54;96375.31;4123585;28;20823;-83
2023/03/14 03:00:12;;;;;;;1.00;0.50;;;;;;;11.41;96.96;96353.72;4130303;28;20663;-83
2023/03/14 03:02:17;;;;;;;1.00;0.50;;;;;;;11.39;95.41;96366.94;4121884;28;21074;-83
2023/03/14 03:04:20;;;;;;;1.73;0.60;;;;;;;11.36;95.42;96372.47;4126121;28;20774;-83
2023/03/14 03:06:24;;;;;;;1.33;0.60;;;;;;;11.40;96.21;96360.75;4112534;28;20654;-83
2023/03/14 03:08:28;;;;;;;0.90;0.50;;;;;;;11.37;96.02;96355.03;4126710;28;20655;-83
2023/03/14 03:10:32;;;;;;;1.10;0.63;;;;;;;11.32;95.51;96367.69;4126172;28;20638;-83
2023/03/14 03:12:35;;;;;;;0.93;0.50;;;;;;;11.35;95.83;96356.94;4110886;28;20643;-83
2023/03/14 03:14:40;;;;;;;2.27;0.70;;;;;;;11.30;96.37;96354.78;4124039;28;20741;-84
2023/03/14 03:16:44;;;;;;;1.13;0.60;;;;;;;11.31;95.75;96350.41;4127314;28;20678;-83
2023/03/14 03:18:48;;;;;;;0.90;0.50;;;;;;;11.27;95.82;96349.06;4124569;28;20627;-83
2023/03/14 03:20:51;;;;;;;2.33;0.80;;;;;;;11.24;97.18;96351.16;4122444;28;22975;-84
2023/03/14 03:22:54;;;;;;;1.63;0.70;;;;;;;11.21;94.90;96359.31;4124485;28;20665;-83
2023/03/14 03:24:57;;;;;;;1.40;0.70;;;;;;;11.18;95.60;96352.59;4126845;28;20738;-84
2023/03/14 03:27:01;;;;;;;1.23;0.63;;;;;;;11.16;95.15;96348.50;4137988;28;20630;-83
2023/03/14 03:29:04;;;;;;;0.90;0.50;;;;;;;11.14;95.36;96333.00;4110298;28;20655;-83
2023/03/14 03:31:08;;;;;;;2.40;1.00;;;;;;;11.15;95.10;96342.44;4129424;28;21278;-83
2023/03/14 03:33:13;;;;;;;1.30;0.70;;;;;;;11.08;96.48;96336.22;4124989;28;20643;-84
2023/03/14 03:35:20;;;;;;;1.63;0.50;;;;;;;11.07;96.65;96326.75;4142091;28;20660;-84
2023/03/14 03:37:24;;;;;;;1.53;0.67;;;;;;;11.09;96.12;96342.25;4121434;28;20648;-83
2023/03/14 03:39:27;;;;;;;1.10;0.50;;;;;;;11.10;96.61;96341.28;4136782;28;21642;-84
2023/03/14 03:41:31;;;;;;;0.80;0.50;;;;;;;11.09;96.59;96335.22;4122626;28;21250;-83
2023/03/14 03:43:35;;;;;;;2.23;0.60;;;;;;;11.06;94.99;96340.75;4137903;28;20619;-83
2023/03/14 03:45:40;;;;;;;2.23;0.70;;;;;;;11.07;95.24;96331.94;4111012;28;20644;-84
2023/03/14 03:47:43;;;;;;;2.10;0.60;;;;;;;11.08;95.34;96323.16;4116394;28;20632;-84
2023/03/14 03:49:47;;;;;;;1.53;0.70;;;;;;;11.11;94.42;96330.69;4140391;28;20668;-83
2023/03/14 03:51:51;;;;;;;3.50;0.60;;;;;;;11.07;95.56;96326.75;4138116;28;20627;-83
2023/03/14 03:53:55;;;;;;;2.43;0.80;;;;;;;11.09;94.46;96323.97;4110348;28;20746;-83
2023/03/14 03:56:04;;;;;;;3.80;0.70;;;;;;;11.06;95.44;96330.31;4142084;28;20633;-83
2023/03/14 03:58:08;;;;;;;2.03;0.80;;;;;;;11.11;95.22;96322.03;4113048;28;20620;-84
2023/03/14 04:00:12;;;;;;;1.20;0.70;;;;;;;11.13;94.90;96320.09;4126468;28;20635;-83
2023/03/14 04:02:18;;;;;;;1.77;0.60;;;;;;;11.08;94.47;96324.94;4121329;28;20643;-83
2023/03/14 04:04:21;;;;;;;2.30;0.73;;;;;;;11.06;93.88;96325.09;4122773;28;20699;-84
2023/03/14 04:06:25;;;;;;;1.20;0.63;;;;;;;11.07;93.67;96311.09;4125683;28;21012;-84
2023/03/14 04:08:32;;;;;;;1.87;0.80;;;;;;;11.05;93.92;96323.47;4112281;28;21015;-83
2023/03/14 04:10:35;;;;;;;2.00;0.93;;;;;;;11.09;94.37;96319.56;4136145;28;20650;-84
2023/03/14 04:12:59;;;;;;;2.20;0.70;;;;;;;11.08;94.55;96317.94;4124667;28;20651;-83
2023/03/14 04:15:05;;;;;;;2.40;0.77;;;;;;;11.05;92.61;96309.59;4129951;28;20694;-83
2023/03/14 04:17:09;;;;;;;2.33;0.67;;;;;;;11.06;93.68;96304.22;4119191;28;20710;-84
2023/03/14 04:19:12;;;;;;;1.53;0.60;;;;;;;11.07;92.97;96305.88;4109748;28;21234;-83
2023/03/14 04:21:16;;;;;;;1.30;0.70;;;;;;;11.03;93.02;96314.94;4110631;28;20642;-83
2023/03/14 04:23:24;;;;;;;5.43;1.10;;;;;;;11.03;92.70;96311.53;4116301;28;20642;-83
2023/03/14 04:25:29;;;;;;;1.70;0.73;;;;;;;10.99;92.17;96316.25;4136048;28;20678;-84
2023/03/14 04:27:33;;;;;;;1.73;0.70;;;;;;;11.03;92.87;96317.56;4120853;28;20710;-83
2023/03/14 04:29:38;;;;;;;2.10;0.90;;;;;;;11.01;92.57;96324.72;4123485;28;20656;-83
2023/03/14 04:31:42;;;;;;;1.33;0.80;;;;;;;11.02;90.74;96323.78;4132162;28;20638;-83
2023/03/14 04:33:46;;;;;;;1.97;0.90;;;;;;;10.98;91.12;96321.63;4117440;28;21043;-82
2023/03/14 04:35:54;;;;;;;2.63;0.80;;;;;;;10.96;91.25;96313.94;4109338;28;20663;-83
2023/03/14 04:37:57;;;;;;;2.03;0.77;;;;;;;10.91;91.60;96316.16;4122675;28;20627;-83
2023/03/14 04:40:01;;;;;;;1.50;0.70;;;;;;;10.96;91.09;96319.16;4105291;28;20630;-83
2023/03/14 04:42:09;;;;;;;2.53;0.80;;;;;;;10.99;89.58;96312.78;4123152;28;20738;-83
2023/03/14 04:44:13;;;;;;;2.43;0.90;;;;;;;11.01;89.64;96311.69;4122052;28;20643;-83
2023/03/14 04:46:17;;;;;;;3.60;0.93;;;;;;;11.00;90.62;96310.03;4109980;28;20705;-83
2023/03/14 04:48:21;;;;;;;3.10;1.30;;;;;;;10.93;89.85;96308.19;4134161;28;20750;-83
2023/03/14 04:50:24;;;;;;;2.20;1.07;;;;;;;10.92;89.45;96299.53;4118156;28;20672;-83
2023/03/14 04:52:27;;;;;;;4.23;0.77;;;;;;;10.94;89.51;96294.19;4126564;28;21032;-83
2023/03/14 04:54:31;;;;;;;2.20;0.80;;;;;;;10.97;89.86;96289.47;4112304;28;20638;-83
2023/03/14 04:56:36;;;;;;;3.67;0.90;;;;;;;10.97;88.88;96289.47;4125619;28;20644;-83
2023/03/14 04:58:41;;;;;;;4.13;1.30;;;;;;;11.00;88.68;96288.38;4134578;28;20638;-83
2023/03/14 05:00:44;;;;;;;3.00;0.87;;;;;;;11.03;88.52;96288.88;4124143;28;21002;-83
2023/03/14 05:03:09;;;;;;;3.10;0.73;;;;;;;11.05;87.83;96286.94;4122731;28;20635;-83
2023/03/14 05:05:31;;;;;;;3.17;1.00;;;;;;;11.10;89.62;96281.28;4138444;28;21210;-83
2023/03/14 05:08:00;;;;;;;3.47;1.10;;;;;;;11.09;88.92;96277.03;4109437;28;21107;-83
2023/03/14 05:10:21;;;;;;;2.33;1.30;;;;;;;11.10;89.15;96269.03;4121544;28;20734;-83
2023/03/14 05:12:50;;;;;;;1.97;0.70;;;;;;;11.12;87.17;96277.53;4114134;28;21264;-83
2023/03/14 05:15:13;;;;;;;2.70;0.93;;;;;;;11.11;87.51;96273.31;4119268;28;20631;-83
2023/03/14 05:17:33;;;;;;;2.83;0.67;;;;;;;11.11;87.31;96272.47;4122306;28;20692;-83
2023/03/14 05:19:57;;;;;;;4.07;1.07;;;;;;;11.09;88.37;96256.97;4127490;28;20700;-83
2023/03/14 05:22:11;;;;;;;3.10;0.63;;;;;;;11.06;87.85;96266.88;4122686;28;20703;-83
2023/03/14 05:24:35;;;;;;;2.20;0.90;;;;;;;11.04;87.87;96263.63;4105799;28;20643;-83
2023/03/14 05:26:38;;;;;;;6.33;1.00;;;;;;;11.00;86.78;96251.84;4132905;28;20646;-83
2023/03/14 05:29:01;;;;;;;1.87;0.70;;;;;;;11.01;87.19;96250.88;4123910;28;20639;-83
2023/03/14 05:31:28;;;;;;;2.07;1.03;;;;;;;11.04;87.04;96251.38;4122984;28;21019;-83
2023/03/14 05:34:04;;;;;;;3.20;0.80;;;;;;;11.00;87.59;96247.44;4099863;28;21060;-83
2023/03/14 05:36:16;;;;;;;2.63;0.90;;;;;;;10.96;88.22;96235.69;4131994;28;20705;-83
2023/03/14 05:38:38;;;;;;;5.53;1.20;;;;;;;10.94;88.55;96236.81;4119725;28;20636;-83
2023/03/14 05:41:01;;;;;;;3.70;0.97;;;;;;;10.89;87.37;96234.66;4138741;28;20634;-83
2023/03/14 05:43:23;;;;;;;1.98;0.90;;;;;;;10.93;87.05;96241.22;4120338;28;20754;-83
2023/03/14 05:45:49;;;;;;;2.47;0.80;;;;;;;10.95;88.14;96228.03;4120552;28;20270;-83
2023/03/14 05:48:12;;;;;;;2.40;1.00;;;;;;;10.96;86.96;96233.09;4138322;28;20651;-83
2023/03/14 05:50:23;;;;;;;3.20;0.80;;;;;;;10.95;86.81;96222.81;4121628;28;20686;-83
2023/03/14 05:52:45;;;;;;;3.83;1.33;;;;;;;10.94;87.78;96237.63;4118491;28;20734;-83
2023/03/14 05:55:14;;;;;;;2.33;0.80;;;;;;;10.89;88.01;96234.66;4112793;28;22885;-82
2023/03/14 05:57:37;;;;;;;5.10;0.90;;;;;;;10.87;88.14;96234.00;4118809;28;20727;-82
2023/03/14 05:59:46;;;;;;;2.57;1.00;;;;;;;10.81;88.11;96218.16;4137103;28;20997;-83
2023/03/14 06:02:04;;;;;;;4.50;1.20;;;;;;;10.75;88.19;96212.69;4125357;28;22518;-83
2023/03/14 06:04:19;;;;;;;3.80;0.70;;;;;;;10.77;87.48;96218.59;4119782;28;20708;-83
2023/03/14 06:06:26;;;;;;;3.07;1.13;;;;;;;10.79;89.35;96208.81;4120432;28;20643;-83
2023/03/14 06:08:29;;;;;;;4.60;0.73;;;;;;;10.78;87.92;96215.00;4139826;28;20660;-82
2023/03/14 06:10:33;;;;;;;1.73;0.70;;;;;;;10.80;88.33;96215.69;4118969;28;20666;-83
2023/03/14 06:12:36;;;;;;;2.40;1.93;;;;;;;10.84;89.08;96217.84;4133767;28;20662;-83
2023/03/14 06:14:39;;;;;;;3.00;0.80;;;;;;;10.85;88.18;96207.25;4133886;28;20638;-83
2023/03/14 06:16:42;;;;;;;3.70;0.80;;;;;;;10.86;87.14;96214.09;4135072;28;20638;-83
2023/03/14 06:18:48;;;;;;;3.10;0.90;;;;;;;10.86;87.82;96211.47;4122899;28;20634;-83
2023/03/14 06:20:56;;;;;;;2.53;0.60;;;;;;;10.84;88.49;96208.22;4104070;28;20651;-83
2023/03/14 06:23:01;;;;;;;3.30;0.70;;;;;;;10.79;88.92;96211.44;4139200;28;20674;-83
2023/03/14 06:25:07;;;;;;;1.30;0.70;;;;;;;10.74;87.77;96213.69;4115698;28;20639;-83
2023/03/14 06:27:10;;;;;;;2.93;0.80;;;;;;;10.78;87.64;96209.78;4132553;28;21396;-83
2023/03/14 06:29:13;;;;;;;2.90;0.77;;;;;;;10.80;88.11;96209.47;4119449;28;20706;-83
2023/03/14 06:31:17;;;;;;;1.97;0.83;;;;;;;10.79;88.12;96216.66;4119617;28;21095;-83
2023/03/14 06:33:28;;;;;;;3.57;1.00;;;;;;;10.78;87.42;96218.44;4118949;28;20639;-83
2023/03/14 06:35:31;;;;;;;2.50;0.90;;;;;;;10.81;89.04;96218.16;4136448;28;20724;-83
2023/03/14 06:37:36;;;;;;;3.23;0.83;;;;;;;10.86;88.38;96211.47;4131333;28;20665;-83
2023/03/14 06:39:39;;;;;;;2.30;0.70;;;;;;;10.85;86.83;96211.63;4126935;28;20689;-83
2023/03/14 06:41:50;;;;;;;2.33;0.70;;;;;;;10.89;87.24;96205.16;4122789;28;20626;-83
2023/03/14 06:43:54;;;;;;;2.27;0.60;;;;;;;10.90;87.29;96212.81;4122957;28;21024;-82
2023/03/14 06:45:58;;;;;;;2.70;0.97;;;;;;;10.93;87.96;96207.31;4120374;28;21542;-82
2023/03/14 06:48:02;;;;;;;5.47;1.27;;;;;;;10.98;86.46;96214.66;4132554;28;20734;-80
2023/03/14 06:50:22;;;;;;;5.50;1.17;;;;;;;10.99;87.24;96204.09;4130150;28;20635;-79
2023/03/14 06:52:25;;;;;;;4.20;1.03;;;;;;;11.06;87.51;96210.31;4121369;28;20670;-79
2023/03/14 06:54:30;;;;;;;2.80;0.90;;;;;;;11.20;86.13;96214.97;4125638;28;20642;-81
2023/03/14 06:56:33;;;;;;;4.23;0.90;;;;;;;11.35;85.23;96216.00;4103942;28;20641;-82
2023/03/14 06:58:36;;;;;;;4.10;1.17;;;;;;;11.47;86.56;96210.44;4105958;28;20772;-81
2023/03/14 07:00:41;;;;;;;1.77;0.80;;;;;;;11.79;84.23;96223.63;4127252;28;20658;-83
2023/03/14 07:02:46;;;;;;;2.40;0.80;;;;;;;11.99;85.52;96217.94;4123707;28;21260;-81
2023/03/14 07:05:19;;;;;;;2.70;1.07;;;;;;;12.15;83.58;96222.41;4119582;28;20670;-83
2023/03/14 07:07:23;;;;;;;3.53;1.00;;;;;;;12.41;84.45;96226.53;4117705;28;20819;-85
2023/03/14 07:09:26;;;;;;;7.03;3.90;;;;;;;12.75;81.53;96235.91;4137653;28;20635;-82
2023/03/14 07:11:35;;;;;;;5.80;2.97;;;;;;;13.11;81.45;96240.66;4105401;28;20705;-82
2023/03/14 07:13:38;;;;;;;3.97;1.17;;;;;;;13.46;79.76;96246.31;4124598;28;20648;-81
2023/03/14 07:15:42;;;;;;;2.83;0.90;;;;;;;13.76;78.42;96259.47;4127116;28;20628;-81
2023/03/14 07:17:47;;;;;;;3.83;1.33;;;;;;;13.78;77.07;96249.63;4126126;28;20693;-83
2023/03/14 07:19:51;;;;;;;2.90;0.80;;;;;;;13.97;76.67;96246.63;4122610;28;20619;-82
2023/03/14 07:21:54;;;;;;;5.53;0.83;;;;;;;14.01;76.88;96244.47;4138472;28;20666;-80
2023/03/14 07:24:00;;;;;;;1.63;0.70;;;;;;;13.80;77.17;96250.31;4122492;28;20639;-81
2023/03/14 07:26:03;;;;;;;3.47;0.90;;;;;;;13.77;77.30;96253.28;4136997;28;20681;-81
2023/03/14 07:28:09;;;;;;;3.00;0.80;;;;;;;13.68;77.17;96241.19;4122622;28;20648;-81
2023/03/14 07:30:15;;;;;;;2.37;1.00;;;;;;;13.77;78.81;96250.66;4142434;28;20624;-81
2023/03/14 07:32:18;;;;;;;3.57;0.80;;;;;;;14.09;76.82;96253.16;4122885;28;20663;-81
2023/03/14 07:34:22;;;;;;;2.50;0.97;;;;;;;14.04;76.71;96249.38;4124779;28;20655;-81
2023/03/14 07:36:25;;;;;;;2.80;0.90;;;;;;;13.86;77.64;96243.56;4119228;28;20758;-81
2023/03/14 07:38:29;;;;;;;3.87;1.50;;;;;;;13.60;77.33;96242.19;4118449;28;20652;-82
2023/03/14 07:40:48;;;;;;;2.10;0.80;;;;;;;13.38;79.01;96242.88;4116499;28;20652;-82
2023/03/14 07:42:54;;;;;;;2.10;0.80;;;;;;;13.13;78.02;96237.88;4120055;28;20636;-82
2023/03/14 07:45:17;;;;;;;3.73;0.83;;;;;;;13.02;79.33;96231.19;4122589;28;20705;-82
2023/03/14 07:47:20;;;;;;;3.57;0.97;;;;;;;13.00;79.29;96229.69;4122651;28;20690;-81
2023/03/14 07:49:23;;;;;;;2.97;0.87;;;;;;;12.97;79.10;96228.22;4120140;28;20746;-82
2023/03/14 07:51:27;;;;;;;1.97;0.80;;;;;;;13.09;80.25;96228.72;4121777;28;21311;-81
2023/03/14 07:53:30;;;;;;;2.90;1.00;;;;;;;13.25;79.33;96235.53;4116018;28;21238;-81
2023/03/14 07:55:33;;;;;;;2.63;1.20;;;;;;;13.14;79.48;96229.84;4124469;28;20635;-81
2023/03/14 07:57:36;;;;;;;3.57;1.67;;;;;;;13.11;78.74;96222.34;4119428;28;20647;-81
2023/03/14 07:59:39;;;;;;;3.87;1.20;;;;;;;13.14;79.45;96223.78;4125063;28;20647;-81
2023/03/14 08:01:43;;;;;;;1.93;0.77;;;;;;;13.19;80.27;96223.13;4136105;28;20626;-81
2023/03/14 08:03:47;;;;;;;2.60;1.70;;;;;;;13.23;79.68;96218.38;4119381;28;20670;-82
2023/03/14 08:05:51;;;;;;;3.30;1.77;;;;;;;13.31;78.22;96221.00;4133167;28;23507;-82
2023/03/14 08:07:54;;;;;;;2.20;0.90;;;;;;;13.29;79.13;96213.28;4118165;28;20638;-82
2023/03/14 08:09:57;;;;;;;2.60;0.93;;;;;;;13.74;78.20;96218.69;4126189;28;20636;-82
2023/03/14 08:12:00;;;;;;;2.07;0.70;;;;;;;13.97;76.38;96212.56;4121309;28;20652;-82
2023/03/14 08:14:03;;;;;;;1.23;0.60;;;;;;;14.08;75.89;96214.81;4138168;28;20623;-82
2023/03/14 08:16:07;;;;;;;1.23;0.50;;;;;;;14.26;77.03;96218.81;4124471;28;20636;-82
2023/03/14 08:18:12;;;;;;;2.23;0.70;;;;;;;14.47;76.58;96226.88;4122421;28;20628;-82
2023/03/14 08:20:15;;;;;;;5.87;0.80;;;;;;;14.87;77.35;96231.81;4123652;28;21112;-82
2023/03/14 08:22:18;;;;;;;1.83;0.60;;;;;;;14.93;75.23;96225.88;4129332;28;20640;-82
2023/03/14 08:24:22;;;;;;;2.60;0.60;;;;;;;14.52;74.86;96221.91;4111230;28;20642;-82
2023/03/14 08:26:25;;;;;;;1.87;0.53;;;;;;;14.33;76.05;96221.56;4130325;28;20990;-82
2023/03/14 08:28:30;;;;;;;2.40;0.70;;;;;;;14.08;75.72;96229.75;4120606;28;20641;-81
2023/03/14 08:30:33;;;;;;;1.23;0.60;;;;;;;14.03;75.60;96221.56;4108494;28;20645;-81
2023/03/14 08:32:36;;;;;;;2.57;0.60;;;;;;;13.94;76.76;96226.00;4106048;28;20660;-81
2023/03/14 08:34:41;;;;;;;1.50;0.50;;;;;;;14.12;75.58;96225.78;4107722;28;20644;-81
2023/03/14 08:36:44;;;;;;;1.97;0.60;;;;;;;14.32;76.62;96220.75;4136987;28;20643;-81
2023/03/14 08:38:47;;;;;;;1.20;0.60;;;;;;;14.60;75.63;96225.31;4126236;28;20621;-81
2023/03/14 08:40:50;;;;;;;1.73;0.70;;;;;;;14.90;75.48;96234.94;4123128;28;21154;-81
2023/03/14 08:42:53;;;;;;;1.53;0.57;;;;;;;14.95;76.13;96234.41;4124171;28;20630;-81
2023/03/14 08:44:56;;;;;;;1.20;0.60;;;;;;;14.97;74.95;96233.22;4124849;28;21210;-81
2023/03/14 08:46:59;;;;;;;2.03;0.60;;;;;;;14.96;75.24;96228.16;4113970;28;20635;-80
2023/03/14 08:49:03;;;;;;;2.30;0.70;;;;;;;14.80;74.49;96221.22;4122593;28;20645;-81
2023/03/14 08:51:08;;;;;;;1.07;0.40;;;;;;;14.43;73.46;96220.34;4123258;28;20651;-81
2023/03/14 08:53:11;;;;;;;2.63;1.20;;;;;;;14.24;74.61;96222.63;4134964;28;21078;-81
2023/03/14 08:55:15;;;;;;;2.30;1.20;;;;;;;14.14;75.92;96222.00;4123905;28;21205;-81
2023/03/14 08:57:18;;;;;;;4.30;0.90;;;;;;;14.14;75.83;96224.63;4123670;28;21208;-81
2023/03/14 08:59:21;;;;;;;2.07;0.60;;;;;;;14.20;76.15;96234.44;4129718;28;21189;-81
2023/03/14 09:01:26;;;;;;;2.47;0.60;;;;;;;14.06;74.99;96224.66;4104414;28;20668;-81
2023/03/14 09:03:29;;;;;;;2.33;0.53;;;;;;;14.04;74.57;96231.03;4124564;28;20722;-81
2023/03/14 09:05:34;;;;;;;1.57;0.60;;;;;;;14.05;76.09;96230.91;4122946;28;20634;-81
2023/03/14 09:07:39;;;;;;;2.83;0.60;;;;;;;14.07;75.18;96238.59;4119687;28;21249;-81
2023/03/14 09:09:42;;;;;;;2.20;0.90;;;;;;;14.01;73.88;96220.88;4101350;28;20656;-81
2023/03/14 09:11:45;;;;;;;4.00;0.40;;;;;;;13.87;73.53;96229.47;4121263;28;20707;-81
2023/03/14 09:13:49;;;;;;;1.10;0.50;;;;;;;13.88;73.27;96229.31;4121050;28;20979;-82
2023/03/14 09:15:52;;;;;;;2.23;0.80;;;;;;;13.99;74.02;96241.22;4125209;28;20640;-81
2023/03/14 09:17:55;;;;;;;1.30;0.50;;;;;;;14.05;73.94;96246.63;4126638;28;20639;-81
2023/03/14 09:19:58;;;;;;;1.10;0.37;;;;;;;14.09;72.24;96239.22;4137241;28;20655;-80
2023/03/14 09:22:03;;;;;;;1.50;0.40;;;;;;;14.03;72.98;96234.66;4133891;28;20639;-81
2023/03/14 09:24:08;;;;;;;2.03;0.50;;;;;;;14.02;72.71;96238.25;4119770;28;20637;-79
2023/03/14 09:26:11;;;;;;;1.97;0.40;;;;;;;13.99;73.44;96247.28;4119799;28;20719;-82
2023/03/14 09:28:14;;;;;;;1.70;0.57;;;;;;;14.07;73.83;96252.50;4116651;28;21121;-81
2023/03/14 09:30:17;;;;;;;1.50;0.80;;;;;;;13.97;73.40;96251.06;4124752;28;21060;-80
2023/03/14 09:32:20;;;;;;;4.23;2.60;;;;;;;13.71;74.60;96255.72;4119774;28;20673;-81
2023/03/14 09:34:23;;;;;;;1.00;0.37;;;;;;;13.57;74.97;96258.25;4113120;28;20668;-81
2023/03/14 09:36:26;;;;;;;1.73;0.70;;;;;;;13.60;75.24;96250.84;4119254;28;20653;-81
2023/03/14 09:38:30;;;;;;;1.47;0.50;;;;;;;13.23;75.78;96241.94;4124089;28;20687;-81
2023/03/14 09:40:37;;;;;;;1.50;0.40;;;;;;;12.99;76.42;96256.84;4119893;28;20637;-81
2023/03/14 09:42:40;;;;;;;1.00;0.30;;;;;;;13.07;77.19;96259.47;4119035;28;20648;-81
2023/03/14 09:44:50;;;;;;;4.10;0.60;;;;;;;13.01;77.99;96266.16;4120413;28;20670;-81
2023/03/14 09:46:55;;;;;;;1.40;0.50;;;;;;;12.99;77.60;96256.84;4135542;28;20654;-81
2023/03/14 09:48:58;;;;;;;2.30;0.40;;;;;;;13.02;78.78;96274.81;4134501;28;21226;-81
2023/03/14 09:51:06;;;;;;;1.90;0.47;;;;;;;12.98;78.92;96273.53;4136244;28;20995;-81
2023/03/14 09:53:14;;;;;;;1.83;0.50;;;;;;;13.05;79.60;96277.97;4123853;28;20663;-81
2023/03/14 09:55:19;;;;;;;0.80;0.30;;;;;;;13.07;79.26;96283.84;4131105;28;20733;-81